sensor_id;sensor_type;location;lat;lon;timestamp;pressure;altitude;pressure_sealevel;temperature;humidity
7105;BME280;3594;42.152;24.714;2023-03-25T00:00:55;-24004.00;;;6.70;nan
7105;BME280;3594;42.152;24.714;2023-03-25T00:03:28;-24015.22;;;7.10;nan
7105;BME280;3594;42.152;24.714;2023-03-25T00:05:55;-24009.97;;;6.91;nan
7105;BME280;3594;42.152;24.714;2023-03-25T00:08:22;-24016.50;;;7.15;nan
7105;BME280;3594;42.152;24.714;2023-03-25T00:10:59;-24005.16;;;6.74;nan
7105;BME280;3594;42.152;24.714;2023-03-25T00:13:26;-24007.13;;;6.81;nan
7105;BME280;3594;42.152;24.714;2023-03-25T00:15:52;-24015.78;;;7.12;nan
7105;BME280;3594;42.152;24.714;2023-03-25T00:18:23;-24005.72;;;6.76;nan
7105;BME280;3594;42.152;24.714;2023-03-25T00:20:50;-24009.53;;;6.90;nan
7105;BME280;3594;42.152;24.714;2023-03-25T00:23:17;-24007.00;;;6.81;nan
7105;BME280;3594;42.152;24.714;2023-03-25T00:25:43;-24011.09;;;6.95;nan
7105;BME280;3594;42.152;24.714;2023-03-25T00:28:10;-24000.47;;;6.57;nan
7105;BME280;3594;42.152;24.714;2023-03-25T00:30:39;-24009.53;;;6.90;nan
7105;BME280;3594;42.152;24.714;2023-03-25T00:33:04;-23998.47;;;6.50;nan
7105;BME280;3594;42.152;24.714;2023-03-25T00:35:30;-24006.72;;;6.80;nan
7105;BME280;3594;42.152;24.714;2023-03-25T00:37:57;-24009.41;;;6.89;nan
7105;BME280;3594;42.152;24.714;2023-03-25T00:40:26;-24012.09;;;6.99;nan
7105;BME280;3594;42.152;24.714;2023-03-25T00:42:53;-24011.53;;;6.97;nan
7105;BME280;3594;42.152;24.714;2023-03-25T00:45:19;-24008.69;;;6.87;nan
7105;BME280;3594;42.152;24.714;2023-03-25T00:47:44;-24006.84;;;6.80;nan
7105;BME280;3594;42.152;24.714;2023-03-25T00:50:10;-24004.16;;;6.71;nan
7105;BME280;3594;42.152;24.714;2023-03-25T00:52:35;-24002.03;;;6.63;nan
7105;BME280;3594;42.152;24.714;2023-03-25T00:55:01;-24006.44;;;6.79;nan
7105;BME280;3594;42.152;24.714;2023-03-25T00:57:27;-24005.28;;;6.75;nan
7105;BME280;3594;42.152;24.714;2023-03-25T00:59:52;-24002.72;;;6.65;nan
7105;BME280;3594;42.152;24.714;2023-03-25T01:02:18;-24003.44;;;6.68;nan
7105;BME280;3594;42.152;24.714;2023-03-25T01:04:46;-24006.13;;;6.78;nan
7105;BME280;3594;42.152;24.714;2023-03-25T01:07:14;-23997.63;;;6.47;nan
7105;BME280;3594;42.152;24.714;2023-03-25T01:09:40;-23999.31;;;6.53;nan
7105;BME280;3594;42.152;24.714;2023-03-25T01:12:06;-24007.28;;;6.82;nan
7105;BME280;3594;42.152;24.714;2023-03-25T01:14:32;-24003.00;;;6.66;nan
7105;BME280;3594;42.152;24.714;2023-03-25T01:16:58;-24009.25;;;6.89;nan
7105;BME280;3594;42.152;24.714;2023-03-25T01:19:24;-24007.56;;;6.83;nan
7105;BME280;3594;42.152;24.714;2023-03-25T01:21:50;-24003.31;;;6.68;nan
7105;BME280;3594;42.152;24.714;2023-03-25T01:24:15;-23997.34;;;6.46;nan
7105;BME280;3594;42.152;24.714;2023-03-25T01:26:42;-23998.91;;;6.52;nan
7105;BME280;3594;42.152;24.714;2023-03-25T01:29:09;-23997.91;;;6.48;nan
7105;BME280;3594;42.152;24.714;2023-03-25T01:31:34;-24002.03;;;6.63;nan
7105;BME280;3594;42.152;24.714;2023-03-25T01:34:00;-24000.47;;;6.57;nan
7105;BME280;3594;42.152;24.714;2023-03-25T01:36:25;-23997.75;;;6.48;nan
7105;BME280;3594;42.152;24.714;2023-03-25T01:38:54;-23997.19;;;6.46;nan
7105;BME280;3594;42.152;24.714;2023-03-25T01:41:20;-23990.38;;;6.21;nan
7105;BME280;3594;42.152;24.714;2023-03-25T01:46:29;-23988.13;;;6.13;nan
7105;BME280;3594;42.152;24.714;2023-03-25T01:48:55;-23991.66;;;6.26;nan
7105;BME280;3594;42.152;24.714;2023-03-25T01:51:26;-23979.16;;;5.82;nan
7105;BME280;3594;42.152;24.714;2023-03-25T01:53:53;-24002.44;;;6.64;nan
7105;BME280;3594;42.152;24.714;2023-03-25T01:56:25;-23995.34;;;6.39;nan
7105;BME280;3594;42.152;24.714;2023-03-25T01:58:51;-23991.09;;;6.24;nan
7105;BME280;3594;42.152;24.714;2023-03-25T02:01:18;-23992.38;;;6.29;nan
7105;BME280;3594;42.152;24.714;2023-03-25T02:03:46;-23986.41;;;6.07;nan
7105;BME280;3594;42.152;24.714;2023-03-25T02:06:27;-23978.03;;;5.77;nan
7105;BME280;3594;42.152;24.714;2023-03-25T02:08:57;-23977.31;;;5.75;nan
7105;BME280;3594;42.152;24.714;2023-03-25T02:11:25;-23976.88;;;5.73;nan
7105;BME280;3594;42.152;24.714;2023-03-25T02:13:55;-23984.41;;;6.00;nan
7105;BME280;3594;42.152;24.714;2023-03-25T02:33:27;-23992.38;;;6.29;nan
7105;BME280;3594;42.152;24.714;2023-03-25T02:39:13;-23989.25;;;6.17;nan
7105;BME280;3594;42.152;24.714;2023-03-25T02:41:52;-23986.25;;;6.07;nan
7105;BME280;3594;42.152;24.714;2023-03-25T02:44:41;-23989.69;;;6.19;nan
7105;BME280;3594;42.152;24.714;2023-03-25T02:47:16;-23973.63;;;5.62;nan
7105;BME280;3594;42.152;24.714;2023-03-25T02:50:21;-23983.28;;;5.96;nan
7105;BME280;3594;42.152;24.714;2023-03-25T02:52:52;-23969.06;;;5.46;nan
7105;BME280;3594;42.152;24.714;2023-03-25T02:55:21;-23977.59;;;5.76;nan
7105;BME280;3594;42.152;24.714;2023-03-25T02:57:51;-23969.34;;;5.47;nan
7105;BME280;3594;42.152;24.714;2023-03-25T03:00:23;-23974.75;;;5.66;nan
7105;BME280;3594;42.152;24.714;2023-03-25T03:02:59;-23975.75;;;5.69;nan
7105;BME280;3594;42.152;24.714;2023-03-25T03:05:31;-23980.16;;;5.85;nan
7105;BME280;3594;42.152;24.714;2023-03-25T03:16:36;-23973.75;;;5.62;nan
7105;BME280;3594;42.152;24.714;2023-03-25T03:24:40;-23970.63;;;5.51;nan
7105;BME280;3594;42.152;24.714;2023-03-25T03:27:26;-23966.09;;;5.35;nan
7105;BME280;3594;42.152;24.714;2023-03-25T03:32:44;-23974.47;;;5.65;nan
7105;BME280;3594;42.152;24.714;2023-03-25T03:35:17;-23971.91;;;5.56;nan
7105;BME280;3594;42.152;24.714;2023-03-25T03:37:50;-23960.25;;;5.14;nan
7105;BME280;3594;42.152;24.714;2023-03-25T03:40:20;-23967.50;;;5.40;nan
7105;BME280;3594;42.152;24.714;2023-03-25T03:42:52;-23968.34;;;5.43;nan
7105;BME280;3594;42.152;24.714;2023-03-25T03:45:30;-23969.50;;;5.47;nan
7105;BME280;3594;42.152;24.714;2023-03-25T03:48:00;-23964.66;;;5.30;nan
7105;BME280;3594;42.152;24.714;2023-03-25T03:50:35;-23965.66;;;5.33;nan
7105;BME280;3594;42.152;24.714;2023-03-25T03:53:11;-23977.88;;;5.77;nan
7105;BME280;3594;42.152;24.714;2023-03-25T03:56:05;-23980.16;;;5.85;nan
7105;BME280;3594;42.152;24.714;2023-03-25T03:58:35;-23979.00;;;5.81;nan
7105;BME280;3594;42.152;24.714;2023-03-25T04:04:05;-23981.00;;;5.88;nan
7105;BME280;3594;42.152;24.714;2023-03-25T04:09:23;-23979.72;;;5.84;nan
7105;BME280;3594;42.152;24.714;2023-03-25T04:11:56;-23976.31;;;5.71;nan
7105;BME280;3594;42.152;24.714;2023-03-25T04:14:24;-23974.59;;;5.65;nan
7105;BME280;3594;42.152;24.714;2023-03-25T04:16:50;-23975.19;;;5.67;nan
7105;BME280;3594;42.152;24.714;2023-03-25T04:19:17;-23977.31;;;5.75;nan
7105;BME280;3594;42.152;24.714;2023-03-25T04:21:46;-23974.19;;;5.64;nan
7105;BME280;3594;42.152;24.714;2023-03-25T04:24:14;-23976.31;;;5.71;nan
7105;BME280;3594;42.152;24.714;2023-03-25T04:26:41;-23976.47;;;5.72;nan
7105;BME280;3594;42.152;24.714;2023-03-25T04:29:07;-23975.59;;;5.69;nan
7105;BME280;3594;42.152;24.714;2023-03-25T04:31:34;-23967.50;;;5.40;nan
7105;BME280;3594;42.152;24.714;2023-03-25T04:34:00;-23960.81;;;5.16;nan
7105;BME280;3594;42.152;24.714;2023-03-25T04:36:26;-23975.03;;;5.67;nan
7105;BME280;3594;42.152;24.714;2023-03-25T04:38:58;-23981.72;;;5.91;nan
7105;BME280;3594;42.152;24.714;2023-03-25T04:41:23;-23982.56;;;5.94;nan
7105;BME280;3594;42.152;24.714;2023-03-25T04:43:49;-23984.69;;;6.01;nan
7105;BME280;3594;42.152;24.714;2023-03-25T04:46:16;-23984.28;;;6.00;nan
7105;BME280;3594;42.152;24.714;2023-03-25T04:48:42;-23982.56;;;5.94;nan
7105;BME280;3594;42.152;24.714;2023-03-25T04:51:13;-23991.22;;;6.25;nan
7105;BME280;3594;42.152;24.714;2023-03-25T04:53:40;-23991.53;;;6.26;nan
7105;BME280;3594;42.152;24.714;2023-03-25T04:56:07;-23994.50;;;6.36;nan
7105;BME280;3594;42.152;24.714;2023-03-25T04:58:40;-23987.53;;;6.11;nan
7105;BME280;3594;42.152;24.714;2023-03-25T05:01:06;-23995.34;;;6.39;nan
7105;BME280;3594;42.152;24.714;2023-03-25T05:03:35;-24001.47;;;6.61;nan
7105;BME280;3594;42.152;24.714;2023-03-25T05:06:04;-23995.34;;;6.39;nan
7105;BME280;3594;42.152;24.714;2023-03-25T05:08:30;-24007.28;;;6.82;nan
7105;BME280;3594;42.152;24.714;2023-03-25T05:10:55;-24009.53;;;6.90;nan
7105;BME280;3594;42.152;24.714;2023-03-25T05:13:21;-24002.03;;;6.63;nan
7105;BME280;3594;42.152;24.714;2023-03-25T05:15:46;-24015.06;;;7.09;nan
7105;BME280;3594;42.152;24.714;2023-03-25T05:18:14;-24018.63;;;7.22;nan
7105;BME280;3594;42.152;24.714;2023-03-25T05:20:42;-24021.31;;;7.32;nan
7105;BME280;3594;42.152;24.714;2023-03-25T05:23:09;-24021.03;;;7.31;nan
7105;BME280;3594;42.152;24.714;2023-03-25T05:25:39;-24023.00;;;7.38;nan
7105;BME280;3594;42.152;24.714;2023-03-25T05:28:06;-24030.81;;;7.66;nan
7105;BME280;3594;42.152;24.714;2023-03-25T05:30:37;-24028.13;;;7.56;nan
7105;BME280;3594;42.152;24.714;2023-03-25T05:33:11;-24016.91;;;7.16;nan
7105;BME280;3594;42.152;24.714;2023-03-25T05:35:38;-24028.97;;;7.59;nan
7105;BME280;3594;42.152;24.714;2023-03-25T05:38:04;-24033.50;;;7.75;nan
7105;BME280;3594;42.152;24.714;2023-03-25T05:40:30;-24029.25;;;7.60;nan
7105;BME280;3594;42.152;24.714;2023-03-25T05:42:57;-24037.47;;;7.89;nan
7105;BME280;3594;42.152;24.714;2023-03-25T05:45:22;-24034.63;;;7.79;nan
7105;BME280;3594;42.152;24.714;2023-03-25T05:47:48;-24044.41;;;8.14;nan
7105;BME280;3594;42.152;24.714;2023-03-25T05:50:13;-24049.94;;;8.34;nan
7105;BME280;3594;42.152;24.714;2023-03-25T05:52:40;-24061.53;;;8.75;nan
7105;BME280;3594;42.152;24.714;2023-03-25T05:55:15;-24065.94;;;8.91;nan
7105;BME280;3594;42.152;24.714;2023-03-25T05:57:41;-24062.81;;;8.80;nan
7105;BME280;3594;42.152;24.714;2023-03-25T06:00:07;-24069.03;;;9.02;nan
7105;BME280;3594;42.152;24.714;2023-03-25T06:02:33;-24070.31;;;9.07;nan
7105;BME280;3594;42.152;24.714;2023-03-25T06:04:59;-24072.56;;;9.15;nan
7105;BME280;3594;42.152;24.714;2023-03-25T06:07:25;-24076.09;;;9.27;nan
7105;BME280;3594;42.152;24.714;2023-03-25T06:09:50;-24086.28;;;9.64;nan
7105;BME280;3594;42.152;24.714;2023-03-25T06:12:20;-24083.88;;;9.55;nan
7105;BME280;3594;42.152;24.714;2023-03-25T06:14:46;-24098.56;;;10.08;nan
7105;BME280;3594;42.152;24.714;2023-03-25T06:17:13;-24098.56;;;10.08;nan
7105;BME280;3594;42.152;24.714;2023-03-25T06:19:38;-24099.56;;;10.11;nan
7105;BME280;3594;42.152;24.714;2023-03-25T06:22:09;-24109.44;;;10.47;nan
7105;BME280;3594;42.152;24.714;2023-03-25T06:24:38;-24109.16;;;10.46;nan
7105;BME280;3594;42.152;24.714;2023-03-25T06:27:06;-24120.72;;;10.87;nan
7105;BME280;3594;42.152;24.714;2023-03-25T06:29:33;-24126.66;;;11.08;nan
7105;BME280;3594;42.152;24.714;2023-03-25T06:31:59;-24130.59;;;11.23;nan
7105;BME280;3594;42.152;24.714;2023-03-25T06:34:24;-24125.94;;;11.06;nan
7105;BME280;3594;42.152;24.714;2023-03-25T06:36:50;-24137.22;;;11.46;nan
7105;BME280;3594;42.152;24.714;2023-03-25T06:39:19;-24138.34;;;11.50;nan
7105;BME280;3594;42.152;24.714;2023-03-25T06:41:44;-24149.63;;;11.91;nan
7105;BME280;3594;42.152;24.714;2023-03-25T06:44:10;-24151.31;;;11.97;nan
7105;BME280;3594;42.152;24.714;2023-03-25T06:46:35;-24151.88;;;11.99;nan
7105;BME280;3594;42.152;24.714;2023-03-25T06:49:01;-24160.47;;;12.30;nan
7105;BME280;3594;42.152;24.714;2023-03-25T06:51:26;-24160.03;;;12.28;nan
7105;BME280;3594;42.152;24.714;2023-03-25T06:53:52;-24164.53;;;12.45;nan
7105;BME280;3594;42.152;24.714;2023-03-25T06:56:17;-24164.13;;;12.43;nan
7105;BME280;3594;42.152;24.714;2023-03-25T06:58:42;-24174.53;;;12.80;nan
7105;BME280;3594;42.152;24.714;2023-03-25T07:01:08;-24175.09;;;12.82;nan
7105;BME280;3594;42.152;24.714;2023-03-25T07:03:34;-24182.97;;;13.11;nan
7105;BME280;3594;42.152;24.714;2023-03-25T07:06:00;-24189.44;;;13.34;nan
7105;BME280;3594;42.152;24.714;2023-03-25T07:10:51;-24195.88;;;13.57;nan
7105;BME280;3594;42.152;24.714;2023-03-25T07:13:16;-24193.50;;;13.49;nan
7105;BME280;3594;42.152;24.714;2023-03-25T07:15:42;-24202.19;;;13.80;nan
7105;BME280;3594;42.152;24.714;2023-03-25T07:18:07;-24202.06;;;13.80;nan
7105;BME280;3594;42.152;24.714;2023-03-25T07:20:33;-24201.91;;;13.79;nan
7105;BME280;3594;42.152;24.714;2023-03-25T07:22:58;-24212.31;;;14.16;nan
7105;BME280;3594;42.152;24.714;2023-03-25T07:25:24;-24214.69;;;14.25;nan
7105;BME280;3594;42.152;24.714;2023-03-25T07:27:49;-24218.34;;;14.38;nan
7105;BME280;3594;42.152;24.714;2023-03-25T07:30:15;-24218.22;;;14.38;nan
7105;BME280;3594;42.152;24.714;2023-03-25T07:32:43;-24229.97;;;14.80;nan
7105;BME280;3594;42.152;24.714;2023-03-25T07:35:08;-24217.06;;;14.34;nan
7105;BME280;3594;42.152;24.714;2023-03-25T07:37:34;-24209.78;;;14.07;nan
7105;BME280;3594;42.152;24.714;2023-03-25T07:39:59;-24218.22;;;14.38;nan
7105;BME280;3594;42.152;24.714;2023-03-25T07:42:25;-24227.75;;;14.72;nan
7105;BME280;3594;42.152;24.714;2023-03-25T07:44:50;-24225.34;;;14.64;nan
7105;BME280;3594;42.152;24.714;2023-03-25T07:47:16;-24215.13;;;14.27;nan
7105;BME280;3594;42.152;24.714;2023-03-25T07:49:41;-24217.34;;;14.35;nan
7105;BME280;3594;42.152;24.714;2023-03-25T07:52:08;-24205.44;;;13.92;nan
7105;BME280;3594;42.152;24.714;2023-03-25T07:54:33;-24214.00;;;14.23;nan
7105;BME280;3594;42.152;24.714;2023-03-25T07:57:00;-24230.69;;;14.83;nan
7105;BME280;3594;42.152;24.714;2023-03-25T07:59:25;-24230.81;;;14.83;nan
7105;BME280;3594;42.152;24.714;2023-03-25T08:01:51;-24237.81;;;15.09;nan
7105;BME280;3594;42.152;24.714;2023-03-25T08:04:16;-24218.06;;;14.37;nan
7105;BME280;3594;42.152;24.714;2023-03-25T08:06:42;-24226.91;;;14.69;nan
7105;BME280;3594;42.152;24.714;2023-03-25T08:09:07;-24238.81;;;15.12;nan
7105;BME280;3594;42.152;24.714;2023-03-25T08:11:33;-24245.25;;;15.35;nan
7105;BME280;3594;42.152;24.714;2023-03-25T08:13:58;-24248.19;;;15.46;nan
7105;BME280;3594;42.152;24.714;2023-03-25T08:16:24;-24261.06;;;15.93;nan
7105;BME280;3594;42.152;24.714;2023-03-25T08:18:49;-24263.88;;;16.03;nan
7105;BME280;3594;42.152;24.714;2023-03-25T08:21:18;-24264.44;;;16.05;nan
7105;BME280;3594;42.152;24.714;2023-03-25T08:23:50;-24281.78;;;16.67;nan
7105;BME280;3594;42.152;24.714;2023-03-25T08:26:16;-24275.88;;;16.46;nan
7105;BME280;3594;42.152;24.714;2023-03-25T08:28:41;-24276.03;;;16.47;nan
7105;BME280;3594;42.152;24.714;2023-03-25T08:31:07;-24281.50;;;16.66;nan
7105;BME280;3594;42.152;24.714;2023-03-25T08:33:33;-24282.88;;;16.71;nan
7105;BME280;3594;42.152;24.714;2023-03-25T08:36:18;-24279.13;;;16.58;nan
7105;BME280;3594;42.152;24.714;2023-03-25T08:38:46;-24270.72;;;16.27;nan
7105;BME280;3594;42.152;24.714;2023-03-25T08:41:12;-24273.50;;;16.38;nan
7105;BME280;3594;42.152;24.714;2023-03-25T08:43:38;-24284.56;;;16.77;nan
7105;BME280;3594;42.152;24.714;2023-03-25T08:46:04;-24283.59;;;16.74;nan
7105;BME280;3594;42.152;24.714;2023-03-25T08:48:30;-24286.78;;;16.86;nan
7105;BME280;3594;42.152;24.714;2023-03-25T08:50:55;-24299.91;;;17.33;nan
7105;BME280;3594;42.152;24.714;2023-03-25T08:53:21;-24291.81;;;17.04;nan
7105;BME280;3594;42.152;24.714;2023-03-25T08:55:50;-24303.41;;;17.46;nan
7105;BME280;3594;42.152;24.714;2023-03-25T08:58:17;-24299.63;;;17.32;nan
7105;BME280;3594;42.152;24.714;2023-03-25T09:00:42;-24301.72;;;17.40;nan
7105;BME280;3594;42.152;24.714;2023-03-25T09:03:08;-24307.59;;;17.61;nan
7105;BME280;3594;42.152;24.714;2023-03-25T09:05:36;-24303.00;;;17.44;nan
7105;BME280;3594;42.152;24.714;2023-03-25T09:08:03;-24307.19;;;17.59;nan
7105;BME280;3594;42.152;24.714;2023-03-25T09:10:28;-24305.09;;;17.52;nan
7105;BME280;3594;42.152;24.714;2023-03-25T09:12:54;-24307.19;;;17.59;nan
7105;BME280;3594;42.152;24.714;2023-03-25T09:15:19;-24308.56;;;17.64;nan
7105;BME280;3594;42.152;24.714;2023-03-25T09:17:45;-24309.69;;;17.69;nan
7105;BME280;3594;42.152;24.714;2023-03-25T09:20:10;-24318.63;;;18.01;nan
7105;BME280;3594;42.152;24.714;2023-03-25T09:22:37;-24322.66;;;18.16;nan
7105;BME280;3594;42.152;24.714;2023-03-25T09:25:04;-24321.69;;;18.12;nan
7105;BME280;3594;42.152;24.714;2023-03-25T09:27:31;-24334.09;;;18.57;nan
7105;BME280;3594;42.152;24.714;2023-03-25T09:29:56;-24341.03;;;18.82;nan
7105;BME280;3594;42.152;24.714;2023-03-25T09:32:22;-24351.22;;;19.19;nan
7105;BME280;3594;42.152;24.714;2023-03-25T09:34:47;-24352.88;;;19.25;nan
7105;BME280;3594;42.152;24.714;2023-03-25T09:37:13;-24358.72;;;19.47;nan
7105;BME280;3594;42.152;24.714;2023-03-25T09:39:38;-24361.91;;;19.58;nan
7105;BME280;3594;42.152;24.714;2023-03-25T09:47:55;-24351.34;;;19.20;nan
7105;BME280;3594;42.152;24.714;2023-03-25T09:50:22;-24343.97;;;18.93;nan
7105;BME280;3594;42.152;24.714;2023-03-25T09:53:14;-24344.13;;;18.93;nan
7105;BME280;3594;42.152;24.714;2023-03-25T09:55:47;-24366.38;;;19.74;nan
7105;BME280;3594;42.152;24.714;2023-03-25T09:58:39;-24369.72;;;19.87;nan
7105;BME280;3594;42.152;24.714;2023-03-25T10:01:20;-24375.81;;;20.09;nan
7105;BME280;3594;42.152;24.714;2023-03-25T10:03:55;-24374.28;;;20.03;nan
7105;BME280;3594;42.152;24.714;2023-03-25T10:06:23;-24376.78;;;20.12;nan
7105;BME280;3594;42.152;24.714;2023-03-25T10:20:13;-24386.53;;;20.48;nan
7105;BME280;3594;42.152;24.714;2023-03-25T10:25:33;-24377.34;;;20.14;nan
7105;BME280;3594;42.152;24.714;2023-03-25T10:28:00;-24392.34;;;20.69;nan
7105;BME280;3594;42.152;24.714;2023-03-25T10:30:41;-24389.44;;;20.58;nan
7105;BME280;3594;42.152;24.714;2023-03-25T10:33:18;-24379.28;;;20.21;nan
7105;BME280;3594;42.152;24.714;2023-03-25T10:35:47;-24383.47;;;20.37;nan
7105;BME280;3594;42.152;24.714;2023-03-25T10:38:20;-24388.47;;;20.55;nan
7105;BME280;3594;42.152;24.714;2023-03-25T10:41:04;-24401.50;;;21.02;nan
7105;BME280;3594;42.152;24.714;2023-03-25T10:43:38;-24396.50;;;20.84;nan
7105;BME280;3594;42.152;24.714;2023-03-25T10:46:25;-24406.78;;;21.22;nan
7105;BME280;3594;42.152;24.714;2023-03-25T10:48:53;-24405.94;;;21.19;nan
7105;BME280;3594;42.152;24.714;2023-03-25T10:51:22;-24418.81;;;21.66;nan
7105;BME280;3594;42.152;24.714;2023-03-25T10:53:51;-24428.25;;;22.00;nan
7105;BME280;3594;42.152;24.714;2023-03-25T10:56:39;-24432.13;;;22.14;nan
7105;BME280;3594;42.152;24.714;2023-03-25T10:59:18;-24445.00;;;22.61;nan
7105;BME280;3594;42.152;24.714;2023-03-25T11:01:47;-24442.09;;;22.51;nan
7105;BME280;3594;42.152;24.714;2023-03-25T11:04:16;-24447.06;;;22.69;nan
7105;BME280;3594;42.152;24.714;2023-03-25T11:06:45;-24451.34;;;22.84;nan
7105;BME280;3594;42.152;24.714;2023-03-25T11:09:28;-24444.56;;;22.60;nan
7105;BME280;3594;42.152;24.714;2023-03-25T11:11:58;-24450.09;;;22.80;nan
7105;BME280;3594;42.152;24.714;2023-03-25T11:14:26;-24444.16;;;22.58;nan
7105;BME280;3594;42.152;24.714;2023-03-25T11:16:58;-24448.88;;;22.75;nan
7105;BME280;3594;42.152;24.714;2023-03-25T11:19:27;-24450.81;;;22.82;nan
7105;BME280;3594;42.152;24.714;2023-03-25T11:21:57;-24452.88;;;22.90;nan
7105;BME280;3594;42.152;24.714;2023-03-25T11:24:31;-24456.47;;;23.03;nan
7105;BME280;3594;42.152;24.714;2023-03-25T11:26:59;-24461.84;;;23.23;nan
7105;BME280;3594;42.152;24.714;2023-03-25T11:29:26;-24462.81;;;23.26;nan
7105;BME280;3594;42.152;24.714;2023-03-25T11:32:07;-24470.69;;;23.55;nan
7105;BME280;3594;42.152;24.714;2023-03-25T11:34:34;-24469.03;;;23.49;nan
7105;BME280;3594;42.152;24.714;2023-03-25T11:37:20;-24465.59;;;23.37;nan
7105;BME280;3594;42.152;24.714;2023-03-25T11:39:53;-24464.75;;;23.33;nan
7105;BME280;3594;42.152;24.714;2023-03-25T11:42:38;-24466.28;;;23.39;nan
7105;BME280;3594;42.152;24.714;2023-03-25T11:45:05;-24463.09;;;23.27;nan
7105;BME280;3594;42.152;24.714;2023-03-25T11:47:35;-24462.69;;;23.26;nan
7105;BME280;3594;42.152;24.714;2023-03-25T11:50:03;-24469.03;;;23.49;nan
7105;BME280;3594;42.152;24.714;2023-03-25T11:52:42;-24475.38;;;23.72;nan
7105;BME280;3594;42.152;24.714;2023-03-25T11:55:16;-24474.44;;;23.69;nan
7105;BME280;3594;42.152;24.714;2023-03-25T11:57:43;-24472.63;;;23.62;nan
7105;BME280;3594;42.152;24.714;2023-03-25T12:00:30;-24477.47;;;23.80;nan
7105;BME280;3594;42.152;24.714;2023-03-25T12:05:24;-24466.56;;;23.40;nan
7105;BME280;3594;42.152;24.714;2023-03-25T12:07:51;-24466.69;;;23.41;nan
7105;BME280;3594;42.152;24.714;2023-03-25T12:10:38;-24459.50;;;23.14;nan
7105;BME280;3594;42.152;24.714;2023-03-25T12:13:19;-24446.78;;;22.68;nan
7105;BME280;3594;42.152;24.714;2023-03-25T12:16:24;-24446.09;;;22.65;nan
7105;BME280;3594;42.152;24.714;2023-03-25T12:21:43;-24449.41;;;22.77;nan
7105;BME280;3594;42.152;24.714;2023-03-25T12:26:53;-24454.41;;;22.96;nan
7105;BME280;3594;42.152;24.714;2023-03-25T12:40:00;-24443.88;;;22.57;nan
7105;BME280;3594;42.152;24.714;2023-03-25T12:45:27;-24445.97;;;22.65;nan
7105;BME280;3594;42.152;24.714;2023-03-25T12:53:44;-24450.53;;;22.81;nan
7105;BME280;3594;42.152;24.714;2023-03-25T13:02:19;-24454.81;;;22.97;nan
7105;BME280;3594;42.152;24.714;2023-03-25T13:07:25;-24445.25;;;22.62;nan
7105;BME280;3594;42.152;24.714;2023-03-25T13:10:04;-24453.56;;;22.93;nan
7105;BME280;3594;42.152;24.714;2023-03-25T13:12:42;-24458.53;;;23.11;nan
7105;BME280;3594;42.152;24.714;2023-03-25T13:15:15;-24448.72;;;22.75;nan
7105;BME280;3594;42.152;24.714;2023-03-25T13:18:12;-24453.28;;;22.92;nan
7105;BME280;3594;42.152;24.714;2023-03-25T13:20:43;-24436.00;;;22.28;nan
7105;BME280;3594;42.152;24.714;2023-03-25T13:23:13;-24440.44;;;22.44;nan
7105;BME280;3594;42.152;24.714;2023-03-25T13:28:20;-24441.25;;;22.47;nan
7105;BME280;3594;42.152;24.714;2023-03-25T13:30:48;-24453.56;;;22.93;nan
7105;BME280;3594;42.152;24.714;2023-03-25T13:33:18;-24464.63;;;23.33;nan
7105;BME280;3594;42.152;24.714;2023-03-25T13:36:00;-24471.13;;;23.57;nan
7105;BME280;3594;42.152;24.714;2023-03-25T13:38:33;-24475.66;;;23.73;nan
7105;BME280;3594;42.152;24.714;2023-03-25T13:41:13;-24477.03;;;23.78;nan
7105;BME280;3594;42.152;24.714;2023-03-25T13:44:07;-24485.75;;;24.10;nan
7105;BME280;3594;42.152;24.714;2023-03-25T13:46:41;-24486.69;;;24.14;nan
7105;BME280;3594;42.152;24.714;2023-03-25T13:49:20;-24484.50;;;24.06;nan
7105;BME280;3594;42.152;24.714;2023-03-25T13:51:47;-24485.88;;;24.11;nan
7105;BME280;3594;42.152;24.714;2023-03-25T13:54:18;-24492.50;;;24.35;nan
7105;BME280;3594;42.152;24.714;2023-03-25T14:10:45;-24491.81;;;24.33;nan
7105;BME280;3594;42.152;24.714;2023-03-25T14:13:17;-24480.34;;;23.91;nan
7105;BME280;3594;42.152;24.714;2023-03-25T14:16:02;-24466.28;;;23.39;nan
7105;BME280;3594;42.152;24.714;2023-03-25T14:18:28;-24471.38;;;23.58;nan
7105;BME280;3594;42.152;24.714;2023-03-25T14:24:13;-24459.94;;;23.16;nan
7105;BME280;3594;42.152;24.714;2023-03-25T14:26:43;-24454.66;;;22.97;nan
7105;BME280;3594;42.152;24.714;2023-03-25T14:34:44;-24438.22;;;22.36;nan
7105;BME280;3594;42.152;24.714;2023-03-25T14:37:25;-24430.47;;;22.08;nan
7105;BME280;3594;42.152;24.714;2023-03-25T14:40:00;-24438.06;;;22.36;nan
7105;BME280;3594;42.152;24.714;2023-03-25T14:42:38;-24439.75;;;22.42;nan
7105;BME280;3594;42.152;24.714;2023-03-25T14:47:56;-24425.47;;;21.90;nan
7105;BME280;3594;42.152;24.714;2023-03-25T14:53:05;-24431.16;;;22.11;nan
7105;BME280;3594;42.152;24.714;2023-03-25T14:55:45;-24422.28;;;21.78;nan
7105;BME280;3594;42.152;24.714;2023-03-25T15:00:43;-24419.38;;;21.68;nan
7105;BME280;3594;42.152;24.714;2023-03-25T15:03:14;-24424.66;;;21.87;nan
7105;BME280;3594;42.152;24.714;2023-03-25T15:05:42;-24423.41;;;21.82;nan
7105;BME280;3594;42.152;24.714;2023-03-25T15:08:11;-24418.56;;;21.65;nan
7105;BME280;3594;42.152;24.714;2023-03-25T15:11:24;-24418.13;;;21.63;nan
7105;BME280;3594;42.152;24.714;2023-03-25T15:13:54;-24411.75;;;21.40;nan
7105;BME280;3594;42.152;24.714;2023-03-25T15:16:54;-24413.84;;;21.47;nan
7105;BME280;3594;42.152;24.714;2023-03-25T15:19:20;-24410.94;;;21.37;nan
7105;BME280;3594;42.152;24.714;2023-03-25T15:24:26;-24415.09;;;21.52;nan
7105;BME280;3594;42.152;24.714;2023-03-25T15:26:54;-24406.63;;;21.21;nan
7105;BME280;3594;42.152;24.714;2023-03-25T15:29:37;-24413.69;;;21.47;nan
7105;BME280;3594;42.152;24.714;2023-03-25T15:35:29;-24405.66;;;21.18;nan
7105;BME280;3594;42.152;24.714;2023-03-25T15:38:21;-24406.22;;;21.20;nan
7105;BME280;3594;42.152;24.714;2023-03-25T15:40:55;-24400.53;;;20.99;nan
7105;BME280;3594;42.152;24.714;2023-03-25T15:57:28;-24381.38;;;20.29;nan
7105;BME280;3594;42.152;24.714;2023-03-25T16:00:07;-24375.69;;;20.08;nan
7105;BME280;3594;42.152;24.714;2023-03-25T16:02:44;-24379.28;;;20.21;nan
7105;BME280;3594;42.152;24.714;2023-03-25T16:05:14;-24373.72;;;20.01;nan
7105;BME280;3594;42.152;24.714;2023-03-25T16:07:41;-24375.13;;;20.06;nan
7105;BME280;3594;42.152;24.714;2023-03-25T16:10:18;-24371.22;;;19.92;nan
7105;BME280;3594;42.152;24.714;2023-03-25T16:12:46;-24366.78;;;19.76;nan
7105;BME280;3594;42.152;24.714;2023-03-25T16:15:14;-24372.06;;;19.95;nan
7105;BME280;3594;42.152;24.714;2023-03-25T16:17:42;-24366.50;;;19.75;nan
7105;BME280;3594;42.152;24.714;2023-03-25T16:20:14;-24368.59;;;19.82;nan